Time;durP1;ratioP1;P1;durP2;ratioP2;P2;SDS_P1;SDS_P2;PMS_P1;PMS_P2;Temp;Humidity;BMP_temperature;BMP_pressure;BME280_temperature;BME280_humidity;BME280_pressure;Samples;Min_cycle;Max_cycle;Signal;HPM_P1;HPM_P2
2023/01/27 00:01:50;;;;;;;16.98;8.07;;;;;;;0.90;82.27;98007.75;10638155;27;20039;-77
2023/01/27 00:07:11;;;;;;;19.30;9.02;;;;;;;0.83;82.29;97998.84;10637977;27;20039;-77
2023/01/27 00:18:11;;;;;;;16.67;8.63;;;;;;;0.79;82.02;97992.16;10642998;27;20403;-77
2023/01/27 00:29:11;;;;;;;17.63;9.00;;;;;;;0.74;82.17;97993.72;10636286;27;20074;-77
2023/01/27 00:34:33;;;;;;;18.45;9.27;;;;;;;0.66;82.10;97987.34;10586318;27;20057;-77
2023/01/27 00:39:53;;;;;;;18.23;8.82;;;;;;;0.63;81.94;98004.13;10611061;27;20075;-77
2023/01/27 00:51:06;;;;;;;19.17;8.93;;;;;;;0.61;82.27;97998.44;10603469;28;20067;-77
2023/01/27 00:56:28;;;;;;;15.25;7.78;;;;;;;0.64;82.44;98011.84;10560677;28;20066;-77
2023/01/27 01:01:48;;;;;;;14.43;7.90;;;;;;;0.61;81.57;98007.41;10576838;28;20481;-77
2023/01/27 01:07:09;;;;;;;14.80;7.60;;;;;;;0.68;81.66;98006.81;10605066;28;20430;-77
2023/01/27 01:12:30;;;;;;;13.30;7.63;;;;;;;0.66;82.27;98009.31;10562568;28;20040;-76
2023/01/27 01:17:51;;;;;;;14.38;8.10;;;;;;;0.67;81.47;98016.28;10579707;27;20039;-76
2023/01/27 01:23:12;;;;;;;15.07;7.65;;;;;;;0.68;82.05;98012.31;10579679;28;20043;-76
2023/01/27 01:28:33;;;;;;;10.55;5.60;;;;;;;0.67;80.95;98004.56;10585705;27;20051;-76
2023/01/27 01:33:53;;;;;;;10.05;5.45;;;;;;;0.64;81.40;98005.63;10586993;27;20495;-76
2023/01/27 01:39:15;;;;;;;11.55;6.45;;;;;;;0.62;81.77;98006.16;10586928;27;20097;-76
2023/01/27 01:44:42;;;;;;;12.30;7.10;;;;;;;0.67;81.49;98007.31;10615380;27;20489;-77
2023/01/27 01:50:03;;;;;;;15.25;7.88;;;;;;;0.66;81.18;98005.84;10600696;27;20047;-76
2023/01/27 01:55:23;;;;;;;12.05;6.53;;;;;;;0.65;81.26;98005.09;10572110;27;20500;-76
2023/01/27 02:00:44;;;;;;;9.98;5.68;;;;;;;0.68;81.18;98001.31;10600104;27;20076;-76
2023/01/27 02:06:05;;;;;;;13.00;6.97;;;;;;;0.71;81.36;97989.28;10585476;27;20440;-76
2023/01/27 02:11:27;;;;;;;11.20;6.07;;;;;;;0.76;81.21;97984.94;10600124;27;20047;-77
2023/01/27 02:16:48;;;;;;;10.95;6.32;;;;;;;0.79;80.71;97979.16;10585409;27;20070;-76
2023/01/27 02:22:10;;;;;;;11.02;6.13;;;;;;;0.75;80.86;97975.97;10613567;27;20047;-76
2023/01/27 02:27:30;;;;;;;13.02;6.82;;;;;;;0.73;81.04;97978.50;10585041;27;20043;-77
2023/01/27 02:32:52;;;;;;;12.35;6.25;;;;;;;0.74;80.89;97979.97;10584798;27;20043;-77
2023/01/27 02:38:13;;;;;;;11.95;5.93;;;;;;;0.79;80.71;97975.69;10583797;27;20040;-76
2023/01/27 02:43:37;;;;;;;12.57;6.45;;;;;;;0.81;81.07;97976.63;10536266;28;20057;-76
2023/01/27 02:48:57;;;;;;;12.05;6.82;;;;;;;0.79;81.09;97975.69;10542237;28;20047;-76
2023/01/27 02:54:18;;;;;;;11.10;6.65;;;;;;;0.74;80.70;97982.72;10541801;28;20489;-76
2023/01/27 02:59:39;;;;;;;10.05;5.82;;;;;;;0.74;80.65;97984.75;10555275;28;20043;-76
2023/01/27 03:05:00;;;;;;;11.10;6.50;;;;;;;0.73;80.21;97975.00;10541311;28;20046;-76
2023/01/27 03:10:21;;;;;;;11.15;6.40;;;;;;;0.76;80.24;97977.44;10541108;28;20048;-76
2023/01/27 03:21:22;;;;;;;9.57;5.72;;;;;;;0.72;80.23;97965.28;10557095;28;20043;-76
2023/01/27 03:26:43;;;;;;;12.77;7.35;;;;;;;0.71;80.34;97961.06;10540442;28;20047;-76
2023/01/27 03:32:07;;;;;;;13.67;6.87;;;;;;;0.65;79.86;97965.88;10527368;28;20039;-76
2023/01/27 03:48:52;;;;;;;11.15;6.07;;;;;;;0.73;80.09;97978.50;10628930;27;20095;-76
2023/01/27 03:54:13;;;;;;;12.40;7.18;;;;;;;0.68;79.92;97979.34;10624681;27;20039;-76
2023/01/27 03:59:34;;;;;;;12.05;6.38;;;;;;;0.68;79.52;97978.59;10624026;27;20043;-76
2023/01/27 04:10:35;;;;;;;14.07;6.95;;;;;;;0.59;79.93;97971.47;10643756;27;20038;-76
2023/01/27 04:15:56;;;;;;;14.02;7.22;;;;;;;0.61;80.14;97971.69;10623884;27;20500;-76
2023/01/27 04:21:17;;;;;;;14.65;7.72;;;;;;;0.68;80.16;97967.63;10623767;27;20440;-76
2023/01/27 04:26:40;;;;;;;11.82;6.70;;;;;;;0.65;79.96;97969.38;10637748;27;20041;-76
2023/01/27 04:32:02;;;;;;;12.18;6.07;;;;;;;0.63;79.26;97973.91;10623769;27;20043;-76
2023/01/27 04:37:23;;;;;;;12.23;6.70;;;;;;;0.59;79.82;97985.22;10623402;27;20484;-76
2023/01/27 04:42:44;;;;;;;10.20;6.05;;;;;;;0.52;79.29;97994.78;10637303;27;20164;-76
2023/01/27 04:48:07;;;;;;;14.75;6.55;;;;;;;0.48;80.04;97993.59;10635066;27;20035;-77
2023/01/27 04:53:28;;;;;;;13.63;6.57;;;;;;;0.55;79.61;97993.00;10648185;27;20054;-76
2023/01/27 04:58:48;;;;;;;11.63;6.03;;;;;;;0.52;79.17;98005.03;10593099;28;20071;-76
2023/01/27 05:04:09;;;;;;;10.95;6.35;;;;;;;0.51;79.68;98011.81;10601482;27;20043;-77
2023/01/27 05:09:30;;;;;;;10.80;6.28;;;;;;;0.47;79.17;98019.56;10604436;27;20072;-76
2023/01/27 05:14:51;;;;;;;9.48;5.88;;;;;;;0.44;79.85;98024.13;10630209;27;20063;-77
2023/01/27 05:20:11;;;;;;;12.10;6.03;;;;;;;0.43;79.81;98030.13;10601746;27;20054;-76
2023/01/27 05:25:32;;;;;;;10.25;4.90;;;;;;;0.50;79.57;98035.03;10601610;27;20081;-76
2023/01/27 05:31:00;;;;;;;9.55;4.97;;;;;;;0.46;79.61;98040.06;10632554;27;20073;-76
2023/01/27 05:36:22;;;;;;;9.80;5.20;;;;;;;0.44;79.32;98037.09;10644191;27;20441;-76
2023/01/27 05:41:43;;;;;;;11.38;5.20;;;;;;;0.46;79.52;98045.56;10629386;27;20058;-76
2023/01/27 05:47:05;;;;;;;9.55;5.00;;;;;;;0.41;79.48;98044.38;10629064;27;20085;-76
2023/01/27 05:52:26;;;;;;;9.82;4.75;;;;;;;0.44;79.75;98059.06;10629322;27;20039;-77
2023/01/27 05:57:46;;;;;;;9.85;4.78;;;;;;;0.44;79.58;98064.56;10614653;27;20430;-77
2023/01/27 06:03:07;;;;;;;9.55;4.70;;;;;;;0.50;79.47;98059.75;10642752;27;20462;-76
2023/01/27 06:08:28;;;;;;;10.18;4.38;;;;;;;0.50;79.46;98070.75;10600415;27;20047;-76
2023/01/27 06:13:49;;;;;;;10.95;5.03;;;;;;;0.48;79.19;98071.28;10625913;27;20050;-76
2023/01/27 06:19:10;;;;;;;8.23;4.53;;;;;;;0.40;79.55;98072.38;10613314;27;20034;-76
2023/01/27 06:24:31;;;;;;;10.52;5.50;;;;;;;0.43;79.13;98074.06;10627631;27;20396;-76
2023/01/27 06:29:51;;;;;;;11.57;5.50;;;;;;;0.43;79.85;98074.06;10626953;27;20058;-76
2023/01/27 06:35:12;;;;;;;9.05;4.95;;;;;;;0.42;79.54;98078.09;10623172;27;20038;-76
2023/01/27 06:40:34;;;;;;;9.50;5.18;;;;;;;0.43;79.45;98072.06;10623557;27;20065;-76
2023/01/27 06:45:58;;;;;;;9.75;4.35;;;;;;;0.43;79.16;98068.59;10641479;27;20035;-76
2023/01/27 06:51:19;;;;;;;9.40;4.30;;;;;;;0.47;79.33;98074.50;10610350;27;20038;-79
2023/01/27 06:56:40;;;;;;;8.63;4.47;;;;;;;0.47;79.27;98075.25;10619125;27;20035;-77
2023/01/27 07:02:01;;;;;;;11.07;5.63;;;;;;;0.53;79.39;98073.19;10610503;27;20062;-78
2023/01/27 07:07:22;;;;;;;10.40;5.15;;;;;;;0.54;79.82;98073.94;10583452;27;20085;-78
2023/01/27 07:12:42;;;;;;;11.00;5.22;;;;;;;0.57;79.54;98083.88;10597657;27;20409;-77
2023/01/27 07:18:04;;;;;;;11.20;5.85;;;;;;;0.52;79.42;98070.97;10597398;27;20055;-77
2023/01/27 07:23:25;;;;;;;11.15;5.38;;;;;;;0.54;79.37;98079.44;10582768;27;20091;-78
2023/01/27 07:28:45;;;;;;;12.32;5.20;;;;;;;0.61;79.47;98086.34;10582616;27;20047;-78
2023/01/27 07:34:06;;;;;;;10.32;5.30;;;;;;;0.65;79.34;98082.03;10596941;27;20039;-78
2023/01/27 07:39:27;;;;;;;11.02;5.07;;;;;;;0.71;78.93;98092.97;10610587;27;20035;-78
2023/01/27 07:44:48;;;;;;;10.27;4.28;;;;;;;0.75;79.04;98094.13;10625368;27;20062;-77
2023/01/27 07:50:11;;;;;;;11.27;5.30;;;;;;;0.74;78.93;98103.63;10639128;27;20042;-77
2023/01/27 07:55:32;;;;;;;10.40;5.43;;;;;;;0.75;79.19;98099.63;10625314;27;20212;-77
2023/01/27 08:00:53;;;;;;;9.80;5.35;;;;;;;0.74;78.87;98098.16;10624693;27;20472;-78
2023/01/27 08:06:14;;;;;;;10.90;4.97;;;;;;;0.75;78.56;98102.38;10638225;27;20050;-78
2023/01/27 08:11:35;;;;;;;10.02;5.07;;;;;;;0.76;78.71;98103.13;10623819;27;20046;-78
2023/01/27 08:16:55;;;;;;;10.07;5.00;;;;;;;0.79;79.06;98099.34;10623495;27;20042;-78
2023/01/27 08:22:20;;;;;;;10.52;5.22;;;;;;;0.86;78.50;98104.22;10623770;27;20041;-78
2023/01/27 08:27:41;;;;;;;10.77;4.82;;;;;;;0.90;78.82;98098.44;10624300;27;20080;-77
2023/01/27 08:33:01;;;;;;;10.35;4.95;;;;;;;0.83;78.24;98108.78;10637348;27;20408;-77
2023/01/27 08:38:22;;;;;;;8.02;4.10;;;;;;;0.92;78.59;98101.41;10644354;27;20065;-78
2023/01/27 08:43:43;;;;;;;9.02;4.75;;;;;;;1.01;77.98;98101.78;10631794;27;20054;-78
2023/01/27 08:49:04;;;;;;;10.43;4.68;;;;;;;1.12;78.22;98103.63;10617523;27;20053;-78
2023/01/27 08:54:25;;;;;;;11.25;5.03;;;;;;;1.20;78.62;98106.53;10631502;27;20039;-78
2023/01/27 08:59:45;;;;;;;11.23;5.55;;;;;;;1.22;76.46;98107.47;10645601;27;20046;-77
2023/01/27 09:05:06;;;;;;;10.80;5.05;;;;;;;1.20;78.11;98104.50;10631113;27;20046;-77
2023/01/27 09:10:27;;;;;;;8.20;4.30;;;;;;;1.27;77.58;98116.91;10616626;27;20077;-77
2023/01/27 09:15:52;;;;;;;7.43;4.07;;;;;;;1.24;77.66;98121.44;10616626;27;20068;-77
2023/01/27 09:21:13;;;;;;;9.90;4.63;;;;;;;1.31;77.40;98114.59;10630544;27;20122;-77
2023/01/27 09:26:37;;;;;;;9.00;4.75;;;;;;;1.34;77.14;98125.28;10629081;27;20042;-77
2023/01/27 09:31:58;;;;;;;9.10;4.68;;;;;;;1.46;76.51;98127.91;10629838;27;20484;-77
2023/01/27 09:37:18;;;;;;;7.20;3.50;;;;;;;1.53;77.39;98130.00;10630153;27;20443;-77
2023/01/27 09:43:22;;;;;;;7.75;4.57;;;;;;;1.56;76.60;98148.25;10628905;27;20050;-77
2023/01/27 09:48:55;;;;;;;6.75;4.13;;;;;;;1.57;76.41;98153.22;10608894;27;20074;-77
2023/01/27 09:54:47;;;;;;;7.82;3.70;;;;;;;1.44;76.43;98156.66;10642510;27;20054;-77
2023/01/27 10:00:45;;;;;;;7.40;4.32;;;;;;;1.46;75.94;98155.41;10657426;27;20460;-77
2023/01/27 10:06:23;;;;;;;8.35;4.45;;;;;;;1.47;75.97;98149.38;10572045;27;20396;-77
2023/01/27 10:12:07;;;;;;;9.20;4.18;;;;;;;1.43;76.19;98149.66;10634146;27;20503;-77
2023/01/27 10:17:50;;;;;;;9.90;4.30;;;;;;;1.62;76.12;98133.13;10654194;27;20050;-77
2023/01/27 10:23:34;;;;;;;9.60;4.47;;;;;;;1.69;75.61;98148.28;10656490;27;20050;-77
2023/01/27 10:29:08;;;;;;;6.50;3.92;;;;;;;1.83;75.95;98144.28;10671647;27;20039;-77
2023/01/27 10:34:38;;;;;;;8.00;4.70;;;;;;;1.86;76.14;98159.75;10627520;27;20087;-77
2023/01/27 10:40:27;;;;;;;7.10;4.00;;;;;;;1.92;76.15;98152.13;10637249;27;20070;-77
2023/01/27 10:46:11;;;;;;;7.25;4.30;;;;;;;1.79;75.75;98165.88;10638502;27;20047;-77
2023/01/27 10:51:34;;;;;;;8.85;4.47;;;;;;;1.83;75.04;98168.31;10665457;27;20039;-77
2023/01/27 10:57:02;;;;;;;8.37;4.33;;;;;;;1.93;74.42;98150.91;10623138;27;20070;-77
2023/01/27 11:03:04;;;;;;;8.75;5.88;;;;;;;2.01;75.64;98137.97;10641397;27;20366;-77
2023/01/27 11:08:28;;;;;;;11.40;4.32;;;;;;;2.08;74.83;98142.13;10611542;27;20046;-77
2023/01/27 11:13:50;;;;;;;10.65;4.75;;;;;;;2.09;74.98;98146.34;10597832;27;20043;-78
2023/01/27 11:19:31;;;;;;;7.93;4.30;;;;;;;2.07;74.09;98143.38;10583789;27;20048;-77
2023/01/27 11:25:22;;;;;;;7.47;3.55;;;;;;;2.19;74.79;98149.44;10597401;27;20442;-76
2023/01/27 11:31:09;;;;;;;6.50;3.88;;;;;;;2.18;74.37;98137.69;10585726;27;20050;-77
2023/01/27 11:36:30;;;;;;;7.28;3.95;;;;;;;2.09;73.76;98137.34;10626113;27;20444;-76
2023/01/27 11:41:53;;;;;;;7.13;4.20;;;;;;;2.15;74.87;98132.50;10634840;27;20509;-77
2023/01/27 11:47:25;;;;;;;12.45;4.95;;;;;;;2.19;74.68;98124.63;10635595;27;20103;-76
2023/01/27 11:52:51;;;;;;;7.38;4.47;;;;;;;2.19;74.04;98128.13;10624563;27;20034;-76
2023/01/27 11:58:16;;;;;;;7.97;5.22;;;;;;;2.10;73.72;98125.78;10624446;27;20071;-77
2023/01/27 12:04:00;;;;;;;7.65;4.95;;;;;;;2.10;74.24;98125.06;10630661;27;20039;-75
2023/01/27 12:09:37;;;;;;;5.68;3.45;;;;;;;2.11;73.49;98112.75;10607474;27;20071;-75
2023/01/27 12:14:59;;;;;;;6.47;3.40;;;;;;;2.16;73.19;98114.69;10591332;27;20067;-76
2023/01/27 12:20:20;;;;;;;7.45;4.13;;;;;;;2.05;73.21;98112.88;10594958;27;20039;-76
2023/01/27 12:25:46;;;;;;;5.25;3.17;;;;;;;1.97;73.57;98123.03;10604141;27;20409;-76
2023/01/27 12:31:27;;;;;;;7.57;3.83;;;;;;;1.93;73.69;98122.59;10587468;27;20043;-76
2023/01/27 12:36:48;;;;;;;7.22;4.05;;;;;;;1.92;73.19;98115.59;10580801;27;20078;-77
2023/01/27 12:42:34;;;;;;;8.95;5.32;;;;;;;1.86;73.11;98115.72;10589358;27;20055;-76
2023/01/27 12:47:58;;;;;;;7.07;4.05;;;;;;;1.77;73.35;98118.88;10618151;27;20043;-76
2023/01/27 12:53:26;;;;;;;7.97;4.35;;;;;;;1.77;73.43;98115.38;10622261;27;20039;-75
2023/01/27 12:58:53;;;;;;;7.20;4.35;;;;;;;1.74;74.29;98117.19;10610181;27;20044;-74
2023/01/27 13:04:21;;;;;;;7.47;4.20;;;;;;;1.67;74.04;98124.03;10623707;27;20047;-76
2023/01/27 13:09:59;;;;;;;8.82;5.40;;;;;;;1.69;74.06;98115.25;10620205;27;20480;-76
2023/01/27 13:15:23;;;;;;;9.93;4.82;;;;;;;1.81;73.70;98118.56;10613650;27;20043;-74
2023/01/27 13:20:54;;;;;;;9.18;4.68;;;;;;;1.82;73.31;98117.28;10592287;27;20051;-78
2023/01/27 13:26:17;;;;;;;7.95;4.90;;;;;;;1.82;73.63;98118.03;10588543;27;20076;-75
2023/01/27 13:31:44;;;;;;;10.20;4.93;;;;;;;1.70;73.78;98122.97;10618473;27;20035;-75
2023/01/27 13:37:27;;;;;;;12.25;5.70;;;;;;;1.51;72.92;98125.03;10604685;27;20092;-76
2023/01/27 13:42:52;;;;;;;11.07;5.45;;;;;;;1.57;73.67;98127.72;10608021;27;20393;-75
2023/01/27 13:48:31;;;;;;;7.53;4.43;;;;;;;1.59;73.59;98134.16;10606822;27;20047;-77
2023/01/27 13:54:05;;;;;;;10.35;5.65;;;;;;;1.55;74.16;98144.00;10617942;27;20043;-75
2023/01/27 13:59:50;;;;;;;14.70;5.97;;;;;;;1.49;74.18;98144.09;10626897;27;20050;-77
2023/01/27 14:05:23;;;;;;;9.75;5.22;;;;;;;1.51;74.26;98143.56;10614119;27;20043;-76
2023/01/27 14:11:06;;;;;;;9.43;5.80;;;;;;;1.43;73.59;98152.41;10643967;27;20053;-77
2023/01/27 14:16:33;;;;;;;12.82;6.50;;;;;;;1.37;73.66;98148.28;10652061;27;20035;-77
2023/01/27 14:22:03;;;;;;;11.88;6.05;;;;;;;1.35;74.60;98146.06;10610266;27;20043;-76
2023/01/27 14:27:30;;;;;;;10.13;6.18;;;;;;;1.38;74.13;98144.25;10613439;27;20069;-77
2023/01/27 14:33:20;;;;;;;12.73;6.50;;;;;;;1.39;74.11;98149.22;10603737;27;20049;-74
2023/01/27 14:39:03;;;;;;;10.00;5.70;;;;;;;1.41;74.06;98151.47;10629838;27;20038;-75
2023/01/27 14:44:39;;;;;;;12.15;6.15;;;;;;;1.36;74.35;98155.78;10645575;27;20050;-76
2023/01/27 14:50:30;;;;;;;10.40;5.50;;;;;;;1.35;74.42;98154.31;10603121;27;20047;-77
2023/01/27 14:56:00;;;;;;;10.00;5.28;;;;;;;1.38;73.84;98156.00;10607261;27;20063;-75
2023/01/27 15:01:52;;;;;;;11.45;5.93;;;;;;;1.31;74.11;98164.09;10641023;27;20050;-74
2023/01/27 15:07:25;;;;;;;10.55;6.00;;;;;;;1.32;74.25;98169.09;10654519;27;20515;-76
2023/01/27 15:13:10;;;;;;;12.32;6.30;;;;;;;1.28;74.09;98163.16;10654684;27;20495;-76
2023/01/27 15:18:51;;;;;;;11.23;6.03;;;;;;;1.31;73.97;98161.34;10642543;27;20527;-76
2023/01/27 15:24:47;;;;;;;11.38;6.55;;;;;;;1.30;73.87;98160.63;10609135;27;20035;-78
2023/01/27 15:30:24;;;;;;;12.32;6.45;;;;;;;1.26;74.15;98168.44;10612397;27;20035;-77
2023/01/27 15:35:45;;;;;;;12.50;7.10;;;;;;;1.20;74.60;98169.78;10610877;27;20039;-76
2023/01/27 15:41:09;;;;;;;12.40;6.60;;;;;;;1.20;74.42;98165.00;10573177;27;20443;-76
2023/01/27 15:46:34;;;;;;;11.93;6.25;;;;;;;1.20;74.44;98175.28;10553816;28;20478;-76
2023/01/27 15:51:56;;;;;;;13.30;6.47;;;;;;;1.17;74.32;98182.56;10554442;28;20049;-78
2023/01/27 15:57:34;;;;;;;13.98;7.10;;;;;;;1.11;74.49;98190.88;10553616;28;20481;-78
2023/01/27 16:02:58;;;;;;;11.45;6.38;;;;;;;1.07;74.67;98189.69;10544886;27;20039;-78
2023/01/27 16:08:19;;;;;;;12.85;5.80;;;;;;;1.11;75.00;98170.88;10595310;27;20035;-78
2023/01/27 16:13:39;;;;;;;11.60;4.97;;;;;;;1.12;75.31;98177.88;10588569;27;20491;-77
2023/01/27 16:19:09;;;;;;;9.07;5.22;;;;;;;1.12;74.98;98191.63;10574222;27;20051;-77
2023/01/27 16:24:57;;;;;;;9.05;4.22;;;;;;;1.10;74.92;98178.38;10566591;28;20051;-77
2023/01/27 16:30:30;;;;;;;8.95;4.30;;;;;;;1.09;75.03;98176.16;10556922;28;20770;-77
2023/01/27 16:35:53;;;;;;;11.68;5.22;;;;;;;1.12;75.55;98184.09;10581155;28;20039;-77
2023/01/27 16:41:21;;;;;;;10.90;5.30;;;;;;;1.12;75.74;98184.09;10580713;28;20055;-77
2023/01/27 16:46:47;;;;;;;8.27;4.15;;;;;;;1.11;74.94;98192.88;10580421;28;20039;-77
2023/01/27 16:52:17;;;;;;;8.65;4.65;;;;;;;1.11;75.56;98188.13;10580617;28;20070;-77
2023/01/27 16:57:42;;;;;;;8.80;4.40;;;;;;;1.12;74.93;98194.38;10584690;27;20061;-78
2023/01/27 17:03:07;;;;;;;7.73;4.23;;;;;;;1.08;75.16;98194.66;10588517;27;20050;-77
2023/01/27 17:08:34;;;;;;;8.65;4.32;;;;;;;1.09;75.47;98192.66;10603133;27;20468;-77
2023/01/27 17:13:56;;;;;;;8.15;3.90;;;;;;;1.06;75.46;98196.44;10603682;27;20070;-78
2023/01/27 17:19:21;;;;;;;8.30;3.80;;;;;;;1.02;75.60;98215.25;10587739;27;20047;-78
2023/01/27 17:24:51;;;;;;;7.90;3.90;;;;;;;1.04;75.74;98218.22;10588996;27;20039;-77
2023/01/27 17:30:17;;;;;;;8.35;3.65;;;;;;;1.07;75.44;98219.94;10601634;27;20039;-78
2023/01/27 17:35:38;;;;;;;7.13;3.35;;;;;;;1.10;75.38;98224.41;10587625;27;20040;-77
2023/01/27 17:40:59;;;;;;;7.25;2.92;;;;;;;1.13;75.04;98226.09;10600611;27;20130;-77
2023/01/27 17:46:22;;;;;;;6.30;3.17;;;;;;;1.12;75.23;98233.59;10572961;27;20107;-76
2023/01/27 17:51:54;;;;;;;5.15;2.80;;;;;;;1.09;75.37;98237.41;10571659;28;20401;-76
2023/01/27 17:57:15;;;;;;;5.85;2.85;;;;;;;1.08;75.55;98240.66;10598048;27;20046;-77
2023/01/27 18:02:53;;;;;;;7.22;3.63;;;;;;;1.05;75.36;98236.19;10608961;27;20074;-77
2023/01/27 18:08:14;;;;;;;5.18;3.20;;;;;;;1.03;75.10;98233.97;10586148;27;20086;-77
2023/01/27 18:13:37;;;;;;;4.68;2.72;;;;;;;1.06;75.20;98243.16;10581381;27;20504;-77
2023/01/27 18:19:19;;;;;;;6.00;2.47;;;;;;;1.09;76.04;98247.66;10565361;27;20401;-77
2023/01/27 18:24:52;;;;;;;6.18;2.85;;;;;;;1.14;75.65;98244.06;10599491;27;20053;-78
2023/01/27 18:30:19;;;;;;;5.95;2.90;;;;;;;1.19;75.99;98251.53;10585810;27;20071;-78
2023/01/27 18:35:40;;;;;;;8.27;2.53;;;;;;;1.21;75.09;98254.50;10585955;27;20043;-77
2023/01/27 18:41:17;;;;;;;5.38;3.00;;;;;;;1.19;75.26;98270.03;10584945;27;20055;-78
2023/01/27 18:46:38;;;;;;;4.38;2.20;;;;;;;1.17;75.61;98273.31;10599870;27;20039;-79
2023/01/27 18:51:58;;;;;;;6.35;3.00;;;;;;;1.18;75.42;98277.53;10598441;27;20047;-78
2023/01/27 18:57:19;;;;;;;5.70;2.67;;;;;;;1.19;75.53;98272.78;10598178;27;20490;-78
2023/01/27 19:02:42;;;;;;;6.47;2.90;;;;;;;1.21;75.55;98282.00;10583588;27;20050;-77
2023/01/27 19:08:03;;;;;;;6.32;3.33;;;;;;;1.20;75.77;98269.50;10583461;27;20110;-77
2023/01/27 19:13:24;;;;;;;5.03;2.45;;;;;;;1.25;75.28;98267.94;10583766;27;20070;-77
2023/01/27 19:18:45;;;;;;;6.30;3.20;;;;;;;1.22;75.91;98272.47;10568304;27;20053;-77
2023/01/27 19:24:09;;;;;;;5.80;3.22;;;;;;;1.22;75.81;98283.47;10569225;27;20107;-77
2023/01/27 19:29:30;;;;;;;5.50;2.97;;;;;;;1.21;75.44;98284.00;10568659;27;20066;-77
2023/01/27 19:34:51;;;;;;;6.05;3.50;;;;;;;1.22;75.78;98288.97;10585800;27;20043;-77
2023/01/27 19:40:20;;;;;;;4.63;2.80;;;;;;;1.26;75.83;98305.22;10574787;27;20433;-76
2023/01/27 19:46:29;;;;;;;6.45;2.88;;;;;;;1.27;75.58;98304.69;10584917;27;20051;-76
2023/01/27 19:51:52;;;;;;;7.85;3.30;;;;;;;1.30;75.72;98306.41;10596063;27;20043;-77
2023/01/27 19:57:15;;;;;;;5.85;3.63;;;;;;;1.23;75.84;98309.72;10582173;27;20035;-77
2023/01/27 20:02:36;;;;;;;5.55;3.42;;;;;;;1.19;75.77;98322.28;10610338;27;20039;-77
2023/01/27 20:07:58;;;;;;;7.28;3.85;;;;;;;1.14;75.53;98323.81;10581134;27;20127;-77
2023/01/27 20:13:18;;;;;;;8.38;4.07;;;;;;;1.16;75.93;98326.81;10613534;27;20117;-76
2023/01/27 20:18:40;;;;;;;7.90;4.10;;;;;;;1.14;76.18;98332.81;10593126;27;20113;-77
2023/01/27 20:24:01;;;;;;;9.38;5.03;;;;;;;1.09;75.80;98332.91;10570397;27;20065;-77
2023/01/27 20:29:22;;;;;;;10.02;4.78;;;;;;;1.08;76.14;98337.66;10569648;27;20039;-78
2023/01/27 20:34:42;;;;;;;12.40;4.85;;;;;;;1.08;76.22;98350.66;10578349;27;20484;-77
2023/01/27 20:40:04;;;;;;;10.30;5.32;;;;;;;1.13;76.11;98358.09;10592609;27;20035;-78
2023/01/27 20:45:24;;;;;;;10.73;5.78;;;;;;;1.13;76.49;98356.06;10564503;28;20047;-77
2023/01/27 20:50:48;;;;;;;13.68;5.97;;;;;;;1.15;76.39;98353.56;10606793;28;20047;-76
2023/01/27 20:56:09;;;;;;;12.65;6.65;;;;;;;1.23;76.67;98361.22;10607188;28;20039;-76
2023/01/27 21:01:31;;;;;;;14.82;7.63;;;;;;;1.19;76.14;98356.03;10592148;27;20039;-78
2023/01/27 21:06:52;;;;;;;13.77;6.68;;;;;;;1.12;76.17;98342.84;10564745;28;20047;-76
2023/01/27 21:12:13;;;;;;;14.43;7.82;;;;;;;1.12;76.47;98354.59;10563927;28;20043;-76
2023/01/27 21:17:34;;;;;;;15.45;7.80;;;;;;;1.11;76.77;98344.13;10594120;27;20054;-76
2023/01/27 21:22:55;;;;;;;15.70;7.88;;;;;;;1.11;76.65;98342.09;10621657;27;20066;-76
2023/01/27 21:28:16;;;;;;;14.48;7.82;;;;;;;1.07;76.46;98343.66;10593636;28;20043;-76
2023/01/27 21:33:37;;;;;;;15.15;8.23;;;;;;;0.99;76.79;98342.75;10580138;28;20074;-76
2023/01/27 21:39:01;;;;;;;15.05;7.88;;;;;;;1.02;76.96;98347.22;10580168;28;20062;-75
2023/01/27 21:50:04;;;;;;;15.20;7.72;;;;;;;1.10;76.95;98348.88;10592298;27;20043;-76
2023/01/27 21:55:26;;;;;;;15.27;8.18;;;;;;;1.11;76.66;98350.34;10585493;27;20027;-76
2023/01/27 22:00:47;;;;;;;19.25;9.10;;;;;;;1.12;77.00;98342.84;10599689;27;20118;-76
2023/01/27 22:06:09;;;;;;;16.65;8.60;;;;;;;1.09;76.89;98344.63;10586128;27;20540;-76
2023/01/27 22:11:30;;;;;;;17.90;8.88;;;;;;;1.07;76.60;98343.66;10599125;27;20051;-76
2023/01/27 22:16:51;;;;;;;16.20;9.52;;;;;;;1.09;76.69;98341.13;10599734;27;20050;-76
2023/01/27 22:22:12;;;;;;;18.20;9.35;;;;;;;1.09;77.15;98338.38;10609503;27;20489;-76
2023/01/27 22:27:34;;;;;;;16.75;8.98;;;;;;;1.09;77.24;98338.38;10599768;27;20043;-76
2023/01/27 22:32:55;;;;;;;17.67;9.02;;;;;;;1.10;76.78;98343.38;10585227;27;20104;-77
2023/01/27 22:38:16;;;;;;;20.08;10.00;;;;;;;1.12;77.14;98329.09;10599576;27;20039;-76
2023/01/27 22:43:36;;;;;;;21.40;10.77;;;;;;;1.13;76.32;98334.06;10612596;27;20435;-76
2023/01/27 22:48:57;;;;;;;19.13;9.50;;;;;;;1.18;77.05;98332.53;10598989;27;20374;-76
2023/01/27 22:54:18;;;;;;;19.23;10.40;;;;;;;1.22;76.79;98327.50;10611748;27;20059;-77
2023/01/27 22:59:39;;;;;;;19.15;10.45;;;;;;;1.21;77.08;98331.50;10598438;27;20092;-76
2023/01/27 23:05:00;;;;;;;23.23;11.30;;;;;;;1.14;77.05;98321.06;10569992;27;20039;-76
2023/01/27 23:10:22;;;;;;;21.85;9.48;;;;;;;1.17;76.98;98331.06;10570282;27;20035;-76
2023/01/27 23:15:43;;;;;;;20.65;9.57;;;;;;;1.20;76.82;98327.25;10583789;27;20046;-76
2023/01/27 23:21:05;;;;;;;21.80;9.88;;;;;;;1.22;76.93;98319.25;10597209;27;20043;-76
2023/01/27 23:26:27;;;;;;;20.40;9.55;;;;;;;1.27;77.25;98326.69;10555258;28;20043;-76
2023/01/27 23:31:48;;;;;;;22.38;10.20;;;;;;;1.27;77.12;98323.94;10541499;28;20477;-76
2023/01/27 23:37:09;;;;;;;22.50;10.80;;;;;;;1.29;76.69;98331.66;10540119;28;20096;-76
2023/01/27 23:42:29;;;;;;;23.52;11.82;;;;;;;1.24;76.52;98324.22;10563320;27;20051;-76
2023/01/27 23:47:50;;;;;;;22.55;11.60;;;;;;;1.23;76.88;98315.22;10582242;27;20054;-76
2023/01/27 23:53:11;;;;;;;21.38;11.00;;;;;;;1.24;76.83;98327.72;10610677;27;20042;-76
2023/01/27 23:58:32;;;;;;;23.83;12.00;;;;;;;1.18;77.02;98318.78;10596000;27;20397;-76
